sensor_id;sensor_type;location;lat;lon;timestamp;P1;P2;P0
64613;PMS5003;51025;37.772;-122.432;2023-07-30T00:00:48;7;7;
64613;PMS5003;51025;37.772;-122.432;2023-07-30T00:03:16;7;5;
64613;PMS5003;51025;37.772;-122.432;2023-07-30T00:05:51;7;6;
64613;PMS5003;51025;37.772;-122.432;2023-07-30T00:08:20;5;5;
64613;PMS5003;51025;37.772;-122.432;2023-07-30T00:10:50;7;5;
64613;PMS5003;51025;37.772;-122.432;2023-07-30T00:13:18;7;7;
64613;PMS5003;51025;37.772;-122.432;2023-07-30T00:15:46;5;5;
64613;PMS5003;51025;37.772;-122.432;2023-07-30T00:18:15;8;7;
64613;PMS5003;51025;37.772;-122.432;2023-07-30T00:20:44;6;6;
64613;PMS5003;51025;37.772;-122.432;2023-07-30T00:23:12;6;6;
64613;PMS5003;51025;37.772;-122.432;2023-07-30T00:25:40;7;6;
64613;PMS5003;51025;37.772;-122.432;2023-07-30T00:28:09;9;7;
64613;PMS5003;51025;37.772;-122.432;2023-07-30T00:30:37;6;6;
64613;PMS5003;51025;37.772;-122.432;2023-07-30T00:33:05;10;10;
64613;PMS5003;51025;37.772;-122.432;2023-07-30T00:35:34;7;7;
64613;PMS5003;51025;37.772;-122.432;2023-07-30T00:38:02;8;6;
64613;PMS5003;51025;37.772;-122.432;2023-07-30T00:40:30;12;6;
64613;PMS5003;51025;37.772;-122.432;2023-07-30T00:42:58;6;5;
64613;PMS5003;51025;37.772;-122.432;2023-07-30T00:45:27;11;10;
64613;PMS5003;51025;37.772;-122.432;2023-07-30T00:47:55;8;7;
64613;PMS5003;51025;37.772;-122.432;2023-07-30T00:50:24;12;7;
64613;PMS5003;51025;37.772;-122.432;2023-07-30T00:52:53;11;7;
64613;PMS5003;51025;37.772;-122.432;2023-07-30T00:55:21;7;7;
64613;PMS5003;51025;37.772;-122.432;2023-07-30T00:57:49;7;7;
64613;PMS5003;51025;37.772;-122.432;2023-07-30T01:00:19;8;6;
64613;PMS5003;51025;37.772;-122.432;2023-07-30T01:02:48;10;8;
64613;PMS5003;51025;37.772;-122.432;2023-07-30T01:05:17;11;7;
64613;PMS5003;51025;37.772;-122.432;2023-07-30T01:07:46;9;7;
64613;PMS5003;51025;37.772;-122.432;2023-07-30T01:10:15;8;6;
64613;PMS5003;51025;37.772;-122.432;2023-07-30T01:12:44;9;8;
64613;PMS5003;51025;37.772;-122.432;2023-07-30T01:15:14;8;5;
64613;PMS5003;51025;37.772;-122.432;2023-07-30T01:17:44;10;7;
64613;PMS5003;51025;37.772;-122.432;2023-07-30T01:20:12;10;9;
64613;PMS5003;51025;37.772;-122.432;2023-07-30T01:22:41;11;10;
64613;PMS5003;51025;37.772;-122.432;2023-07-30T01:25:09;12;11;
64613;PMS5003;51025;37.772;-122.432;2023-07-30T01:27:39;16;11;
64613;PMS5003;51025;37.772;-122.432;2023-07-30T01:30:14;14;11;
64613;PMS5003;51025;37.772;-122.432;2023-07-30T01:32:45;7;7;
64613;PMS5003;51025;37.772;-122.432;2023-07-30T01:35:17;9;7;
64613;PMS5003;51025;37.772;-122.432;2023-07-30T01:37:47;7;6;
64613;PMS5003;51025;37.772;-122.432;2023-07-30T01:40:18;6;6;
64613;PMS5003;51025;37.772;-122.432;2023-07-30T01:42:46;9;8;
64613;PMS5003;51025;37.772;-122.432;2023-07-30T01:45:15;12;8;
64613;PMS5003;51025;37.772;-122.432;2023-07-30T01:47:44;9;6;
64613;PMS5003;51025;37.772;-122.432;2023-07-30T01:50:13;11;8;
64613;PMS5003;51025;37.772;-122.432;2023-07-30T01:52:41;9;8;
64613;PMS5003;51025;37.772;-122.432;2023-07-30T01:55:09;6;5;
64613;PMS5003;51025;37.772;-122.432;2023-07-30T01:57:37;9;7;
64613;PMS5003;51025;37.772;-122.432;2023-07-30T02:00:06;11;6;
64613;PMS5003;51025;37.772;-122.432;2023-07-30T02:02:35;8;7;
64613;PMS5003;51025;37.772;-122.432;2023-07-30T02:05:04;10;9;
64613;PMS5003;51025;37.772;-122.432;2023-07-30T02:07:32;11;9;
64613;PMS5003;51025;37.772;-122.432;2023-07-30T02:10:01;6;6;
64613;PMS5003;51025;37.772;-122.432;2023-07-30T02:12:29;6;6;
64613;PMS5003;51025;37.772;-122.432;2023-07-30T02:14:57;9;6;
64613;PMS5003;51025;37.772;-122.432;2023-07-30T02:17:25;10;8;
64613;PMS5003;51025;37.772;-122.432;2023-07-30T02:19:54;7;7;
64613;PMS5003;51025;37.772;-122.432;2023-07-30T02:22:23;8;8;
64613;PMS5003;51025;37.772;-122.432;2023-07-30T02:24:51;9;7;
64613;PMS5003;51025;37.772;-122.432;2023-07-30T02:27:19;8;8;
64613;PMS5003;51025;37.772;-122.432;2023-07-30T02:29:48;7;6;
64613;PMS5003;51025;37.772;-122.432;2023-07-30T02:32:16;9;8;
64613;PMS5003;51025;37.772;-122.432;2023-07-30T02:34:44;8;8;
64613;PMS5003;51025;37.772;-122.432;2023-07-30T02:37:13;7;6;
64613;PMS5003;51025;37.772;-122.432;2023-07-30T02:39:41;8;7;
64613;PMS5003;51025;37.772;-122.432;2023-07-30T02:42:09;8;6;
64613;PMS5003;51025;37.772;-122.432;2023-07-30T02:44:38;8;7;
64613;PMS5003;51025;37.772;-122.432;2023-07-30T02:47:06;11;10;
64613;PMS5003;51025;37.772;-122.432;2023-07-30T02:49:35;10;8;
64613;PMS5003;51025;37.772;-122.432;2023-07-30T02:52:03;10;9;
64613;PMS5003;51025;37.772;-122.432;2023-07-30T02:54:32;10;9;
64613;PMS5003;51025;37.772;-122.432;2023-07-30T02:57:00;6;5;
64613;PMS5003;51025;37.772;-122.432;2023-07-30T02:59:28;5;5;
64613;PMS5003;51025;37.772;-122.432;2023-07-30T03:01:56;9;9;
64613;PMS5003;51025;37.772;-122.432;2023-07-30T03:04:24;8;8;
64613;PMS5003;51025;37.772;-122.432;2023-07-30T03:06:52;8;8;
64613;PMS5003;51025;37.772;-122.432;2023-07-30T03:09:21;9;8;
64613;PMS5003;51025;37.772;-122.432;2023-07-30T03:11:50;8;8;
64613;PMS5003;51025;37.772;-122.432;2023-07-30T03:14:18;17;13;
64613;PMS5003;51025;37.772;-122.432;2023-07-30T03:16:48;108;93;
64613;PMS5003;51025;37.772;-122.432;2023-07-30T03:19:16;83;75;
64613;PMS5003;51025;37.772;-122.432;2023-07-30T03:21:45;88;71;
64613;PMS5003;51025;37.772;-122.432;2023-07-30T03:24:13;89;69;
64613;PMS5003;51025;37.772;-122.432;2023-07-30T03:26:42;79;65;
64613;PMS5003;51025;37.772;-122.432;2023-07-30T03:29:10;80;71;
64613;PMS5003;51025;37.772;-122.432;2023-07-30T03:31:38;72;59;
64613;PMS5003;51025;37.772;-122.432;2023-07-30T03:34:07;79;64;
64613;PMS5003;51025;37.772;-122.432;2023-07-30T03:36:35;72;55;
64613;PMS5003;51025;37.772;-122.432;2023-07-30T03:39:03;65;55;
64613;PMS5003;51025;37.772;-122.432;2023-07-30T03:41:31;53;41;
64613;PMS5003;51025;37.772;-122.432;2023-07-30T03:44:00;53;46;
64613;PMS5003;51025;37.772;-122.432;2023-07-30T03:46:28;54;43;
64613;PMS5003;51025;37.772;-122.432;2023-07-30T03:48:56;62;49;
64613;PMS5003;51025;37.772;-122.432;2023-07-30T03:51:24;45;39;
64613;PMS5003;51025;37.772;-122.432;2023-07-30T03:53:52;60;42;
64613;PMS5003;51025;37.772;-122.432;2023-07-30T03:56:21;55;45;
64613;PMS5003;51025;37.772;-122.432;2023-07-30T03:58:49;49;44;
64613;PMS5003;51025;37.772;-122.432;2023-07-30T04:01:18;42;33;
64613;PMS5003;51025;37.772;-122.432;2023-07-30T04:03:46;43;38;
64613;PMS5003;51025;37.772;-122.432;2023-07-30T04:06:15;46;34;
64613;PMS5003;51025;37.772;-122.432;2023-07-30T04:08:43;48;33;
64613;PMS5003;51025;37.772;-122.432;2023-07-30T04:11:12;40;36;
64613;PMS5003;51025;37.772;-122.432;2023-07-30T04:13:40;33;25;
64613;PMS5003;51025;37.772;-122.432;2023-07-30T04:16:09;29;24;
64613;PMS5003;51025;37.772;-122.432;2023-07-30T04:18:37;29;25;
64613;PMS5003;51025;37.772;-122.432;2023-07-30T04:21:06;27;22;
64613;PMS5003;51025;37.772;-122.432;2023-07-30T04:23:34;32;26;
64613;PMS5003;51025;37.772;-122.432;2023-07-30T04:26:03;25;22;
64613;PMS5003;51025;37.772;-122.432;2023-07-30T04:28:31;24;22;
64613;PMS5003;51025;37.772;-122.432;2023-07-30T04:30:59;22;19;
64613;PMS5003;51025;37.772;-122.432;2023-07-30T04:33:28;25;13;
64613;PMS5003;51025;37.772;-122.432;2023-07-30T04:35:56;21;16;
64613;PMS5003;51025;37.772;-122.432;2023-07-30T04:38:24;23;16;
64613;PMS5003;51025;37.772;-122.432;2023-07-30T04:40:53;19;17;
64613;PMS5003;51025;37.772;-122.432;2023-07-30T04:43:24;18;16;
64613;PMS5003;51025;37.772;-122.432;2023-07-30T04:45:53;19;16;
64613;PMS5003;51025;37.772;-122.432;2023-07-30T04:48:22;21;15;
64613;PMS5003;51025;37.772;-122.432;2023-07-30T04:50:50;18;16;
64613;PMS5003;51025;37.772;-122.432;2023-07-30T04:53:19;17;15;
64613;PMS5003;51025;37.772;-122.432;2023-07-30T04:55:48;12;12;
64613;PMS5003;51025;37.772;-122.432;2023-07-30T04:58:21;14;14;
64613;PMS5003;51025;37.772;-122.432;2023-07-30T05:00:49;16;13;
64613;PMS5003;51025;37.772;-122.432;2023-07-30T05:03:18;11;7;
64613;PMS5003;51025;37.772;-122.432;2023-07-30T05:05:46;17;13;
64613;PMS5003;51025;37.772;-122.432;2023-07-30T05:08:15;13;13;
64613;PMS5003;51025;37.772;-122.432;2023-07-30T05:10:43;16;15;
64613;PMS5003;51025;37.772;-122.432;2023-07-30T05:13:11;12;11;
64613;PMS5003;51025;37.772;-122.432;2023-07-30T05:15:40;12;11;
64613;PMS5003;51025;37.772;-122.432;2023-07-30T05:18:08;11;11;
64613;PMS5003;51025;37.772;-122.432;2023-07-30T05:20:36;13;7;
64613;PMS5003;51025;37.772;-122.432;2023-07-30T05:23:04;11;9;
64613;PMS5003;51025;37.772;-122.432;2023-07-30T05:25:32;9;9;
64613;PMS5003;51025;37.772;-122.432;2023-07-30T05:28:00;11;8;
64613;PMS5003;51025;37.772;-122.432;2023-07-30T05:30:28;13;9;
64613;PMS5003;51025;37.772;-122.432;2023-07-30T05:32:57;13;11;
64613;PMS5003;51025;37.772;-122.432;2023-07-30T05:35:25;10;8;
64613;PMS5003;51025;37.772;-122.432;2023-07-30T05:37:54;9;9;
64613;PMS5003;51025;37.772;-122.432;2023-07-30T05:40:23;10;9;
64613;PMS5003;51025;37.772;-122.432;2023-07-30T05:42:51;12;11;
64613;PMS5003;51025;37.772;-122.432;2023-07-30T05:45:20;11;10;
64613;PMS5003;51025;37.772;-122.432;2023-07-30T05:47:48;14;9;
64613;PMS5003;51025;37.772;-122.432;2023-07-30T05:50:17;9;8;
64613;PMS5003;51025;37.772;-122.432;2023-07-30T05:52:46;12;6;
64613;PMS5003;51025;37.772;-122.432;2023-07-30T05:55:14;7;7;
64613;PMS5003;51025;37.772;-122.432;2023-07-30T05:57:43;10;8;
64613;PMS5003;51025;37.772;-122.432;2023-07-30T06:00:12;10;10;
64613;PMS5003;51025;37.772;-122.432;2023-07-30T06:02:40;13;10;
64613;PMS5003;51025;37.772;-122.432;2023-07-30T06:05:08;13;10;
64613;PMS5003;51025;37.772;-122.432;2023-07-30T06:07:36;14;12;
64613;PMS5003;51025;37.772;-122.432;2023-07-30T06:10:05;7;7;
64613;PMS5003;51025;37.772;-122.432;2023-07-30T06:12:34;13;12;
64613;PMS5003;51025;37.772;-122.432;2023-07-30T06:15:05;9;7;
64613;PMS5003;51025;37.772;-122.432;2023-07-30T06:17:34;8;8;
64613;PMS5003;51025;37.772;-122.432;2023-07-30T06:20:02;15;12;
64613;PMS5003;51025;37.772;-122.432;2023-07-30T06:22:32;15;15;
64613;PMS5003;51025;37.772;-122.432;2023-07-30T06:25:00;14;11;
64613;PMS5003;51025;37.772;-122.432;2023-07-30T06:27:28;14;10;
64613;PMS5003;51025;37.772;-122.432;2023-07-30T06:29:56;12;10;
64613;PMS5003;51025;37.772;-122.432;2023-07-30T06:32:24;12;10;
64613;PMS5003;51025;37.772;-122.432;2023-07-30T06:34:53;13;12;
64613;PMS5003;51025;37.772;-122.432;2023-07-30T06:37:21;13;12;
64613;PMS5003;51025;37.772;-122.432;2023-07-30T06:39:49;10;10;
64613;PMS5003;51025;37.772;-122.432;2023-07-30T06:42:18;11;7;
64613;PMS5003;51025;37.772;-122.432;2023-07-30T06:44:46;9;9;
64613;PMS5003;51025;37.772;-122.432;2023-07-30T06:47:15;10;8;
64613;PMS5003;51025;37.772;-122.432;2023-07-30T06:49:44;9;8;
64613;PMS5003;51025;37.772;-122.432;2023-07-30T06:52:12;8;8;
64613;PMS5003;51025;37.772;-122.432;2023-07-30T06:54:41;8;8;
64613;PMS5003;51025;37.772;-122.432;2023-07-30T06:57:09;12;8;
64613;PMS5003;51025;37.772;-122.432;2023-07-30T06:59:37;13;10;
64613;PMS5003;51025;37.772;-122.432;2023-07-30T07:02:06;13;10;
64613;PMS5003;51025;37.772;-122.432;2023-07-30T07:04:34;6;6;
64613;PMS5003;51025;37.772;-122.432;2023-07-30T07:07:03;12;12;
64613;PMS5003;51025;37.772;-122.432;2023-07-30T07:09:32;9;9;
64613;PMS5003;51025;37.772;-122.432;2023-07-30T07:12:00;8;7;
64613;PMS5003;51025;37.772;-122.432;2023-07-30T07:14:28;9;7;
64613;PMS5003;51025;37.772;-122.432;2023-07-30T07:16:57;8;6;
64613;PMS5003;51025;37.772;-122.432;2023-07-30T07:19:25;10;9;
64613;PMS5003;51025;37.772;-122.432;2023-07-30T07:21:53;8;8;
64613;PMS5003;51025;37.772;-122.432;2023-07-30T07:24:22;9;7;
64613;PMS5003;51025;37.772;-122.432;2023-07-30T07:26:51;8;8;
64613;PMS5003;51025;37.772;-122.432;2023-07-30T07:29:19;7;7;
64613;PMS5003;51025;37.772;-122.432;2023-07-30T07:31:48;8;7;
64613;PMS5003;51025;37.772;-122.432;2023-07-30T07:34:17;11;11;
64613;PMS5003;51025;37.772;-122.432;2023-07-30T07:36:45;7;5;
64613;PMS5003;51025;37.772;-122.432;2023-07-30T07:39:13;9;6;
64613;PMS5003;51025;37.772;-122.432;2023-07-30T07:41:41;11;10;
64613;PMS5003;51025;37.772;-122.432;2023-07-30T07:44:10;9;8;
64613;PMS5003;51025;37.772;-122.432;2023-07-30T07:46:38;6;6;
64613;PMS5003;51025;37.772;-122.432;2023-07-30T07:49:07;13;12;
64613;PMS5003;51025;37.772;-122.432;2023-07-30T07:51:35;7;7;
64613;PMS5003;51025;37.772;-122.432;2023-07-30T07:54:04;7;6;
64613;PMS5003;51025;37.772;-122.432;2023-07-30T07:56:32;10;9;
64613;PMS5003;51025;37.772;-122.432;2023-07-30T07:59:01;7;7;
64613;PMS5003;51025;37.772;-122.432;2023-07-30T08:01:29;7;7;
64613;PMS5003;51025;37.772;-122.432;2023-07-30T08:03:57;7;5;
64613;PMS5003;51025;37.772;-122.432;2023-07-30T08:06:26;5;5;
64613;PMS5003;51025;37.772;-122.432;2023-07-30T08:08:54;9;8;
64613;PMS5003;51025;37.772;-122.432;2023-07-30T08:11:23;7;5;
64613;PMS5003;51025;37.772;-122.432;2023-07-30T08:13:51;7;6;
64613;PMS5003;51025;37.772;-122.432;2023-07-30T08:16:19;9;6;
64613;PMS5003;51025;37.772;-122.432;2023-07-30T08:18:48;8;8;
64613;PMS5003;51025;37.772;-122.432;2023-07-30T08:21:16;6;6;
64613;PMS5003;51025;37.772;-122.432;2023-07-30T08:23:45;7;7;
64613;PMS5003;51025;37.772;-122.432;2023-07-30T08:26:14;9;7;
64613;PMS5003;51025;37.772;-122.432;2023-07-30T08:28:42;7;6;
64613;PMS5003;51025;37.772;-122.432;2023-07-30T08:31:10;7;7;
64613;PMS5003;51025;37.772;-122.432;2023-07-30T08:33:38;7;6;
64613;PMS5003;51025;37.772;-122.432;2023-07-30T08:36:07;6;5;
64613;PMS5003;51025;37.772;-122.432;2023-07-30T08:38:36;4;4;
64613;PMS5003;51025;37.772;-122.432;2023-07-30T08:41:05;6;6;
64613;PMS5003;51025;37.772;-122.432;2023-07-30T08:43:34;6;6;
64613;PMS5003;51025;37.772;-122.432;2023-07-30T08:46:02;6;6;
64613;PMS5003;51025;37.772;-122.432;2023-07-30T08:48:31;5;5;
64613;PMS5003;51025;37.772;-122.432;2023-07-30T08:50:59;9;6;
64613;PMS5003;51025;37.772;-122.432;2023-07-30T08:53:28;6;6;
64613;PMS5003;51025;37.772;-122.432;2023-07-30T08:55:57;11;6;
64613;PMS5003;51025;37.772;-122.432;2023-07-30T08:58:27;4;4;
64613;PMS5003;51025;37.772;-122.432;2023-07-30T09:00:56;9;6;
64613;PMS5003;51025;37.772;-122.432;2023-07-30T09:03:27;6;6;
64613;PMS5003;51025;37.772;-122.432;2023-07-30T09:05:56;7;7;
64613;PMS5003;51025;37.772;-122.432;2023-07-30T09:08:25;6;4;
64613;PMS5003;51025;37.772;-122.432;2023-07-30T09:10:53;6;6;
64613;PMS5003;51025;37.772;-122.432;2023-07-30T09:13:22;8;6;
64613;PMS5003;51025;37.772;-122.432;2023-07-30T09:15:50;5;4;
64613;PMS5003;51025;37.772;-122.432;2023-07-30T09:18:19;4;4;
64613;PMS5003;51025;37.772;-122.432;2023-07-30T09:20:48;6;6;
64613;PMS5003;51025;37.772;-122.432;2023-07-30T09:23:16;5;5;
64613;PMS5003;51025;37.772;-122.432;2023-07-30T09:25:45;8;6;
64613;PMS5003;51025;37.772;-122.432;2023-07-30T09:28:16;6;5;
64613;PMS5003;51025;37.772;-122.432;2023-07-30T09:30:49;5;5;
64613;PMS5003;51025;37.772;-122.432;2023-07-30T09:33:18;6;5;
64613;PMS5003;51025;37.772;-122.432;2023-07-30T09:35:46;3;3;
64613;PMS5003;51025;37.772;-122.432;2023-07-30T09:38:15;4;4;
64613;PMS5003;51025;37.772;-122.432;2023-07-30T09:40:46;4;4;
64613;PMS5003;51025;37.772;-122.432;2023-07-30T09:43:15;4;4;
64613;PMS5003;51025;37.772;-122.432;2023-07-30T09:45:44;6;5;
64613;PMS5003;51025;37.772;-122.432;2023-07-30T09:48:13;5;5;
64613;PMS5003;51025;37.772;-122.432;2023-07-30T09:50:41;5;4;
64613;PMS5003;51025;37.772;-122.432;2023-07-30T09:53:11;4;4;
64613;PMS5003;51025;37.772;-122.432;2023-07-30T09:55:42;5;5;
64613;PMS5003;51025;37.772;-122.432;2023-07-30T09:58:10;6;4;
64613;PMS5003;51025;37.772;-122.432;2023-07-30T10:00:38;7;7;
64613;PMS5003;51025;37.772;-122.432;2023-07-30T10:03:07;5;4;
64613;PMS5003;51025;37.772;-122.432;2023-07-30T10:05:37;7;5;
64613;PMS5003;51025;37.772;-122.432;2023-07-30T10:08:08;6;6;
64613;PMS5003;51025;37.772;-122.432;2023-07-30T10:10:41;7;4;
64613;PMS5003;51025;37.772;-122.432;2023-07-30T10:13:10;8;5;
64613;PMS5003;51025;37.772;-122.432;2023-07-30T10:15:40;7;5;
64613;PMS5003;51025;37.772;-122.432;2023-07-30T10:18:09;6;6;
64613;PMS5003;51025;37.772;-122.432;2023-07-30T10:20:37;4;4;
64613;PMS5003;51025;37.772;-122.432;2023-07-30T10:23:06;7;4;
64613;PMS5003;51025;37.772;-122.432;2023-07-30T10:25:42;4;4;
64613;PMS5003;51025;37.772;-122.432;2023-07-30T10:28:44;5;5;
64613;PMS5003;51025;37.772;-122.432;2023-07-30T10:31:13;3;2;
64613;PMS5003;51025;37.772;-122.432;2023-07-30T10:33:44;6;6;
64613;PMS5003;51025;37.772;-122.432;2023-07-30T10:36:14;5;5;
64613;PMS5003;51025;37.772;-122.432;2023-07-30T10:38:45;7;4;
64613;PMS5003;51025;37.772;-122.432;2023-07-30T10:41:13;5;5;
64613;PMS5003;51025;37.772;-122.432;2023-07-30T10:43:45;4;2;
64613;PMS5003;51025;37.772;-122.432;2023-07-30T10:46:16;4;4;
64613;PMS5003;51025;37.772;-122.432;2023-07-30T10:48:46;5;5;
64613;PMS5003;51025;37.772;-122.432;2023-07-30T10:51:15;3;3;
64613;PMS5003;51025;37.772;-122.432;2023-07-30T10:53:45;5;3;
64613;PMS5003;51025;37.772;-122.432;2023-07-30T10:56:15;3;3;
64613;PMS5003;51025;37.772;-122.432;2023-07-30T10:58:49;5;4;
64613;PMS5003;51025;37.772;-122.432;2023-07-30T11:01:18;3;3;
64613;PMS5003;51025;37.772;-122.432;2023-07-30T11:03:48;4;2;
64613;PMS5003;51025;37.772;-122.432;2023-07-30T11:06:21;4;4;
64613;PMS5003;51025;37.772;-122.432;2023-07-30T11:08:50;4;4;
64613;PMS5003;51025;37.772;-122.432;2023-07-30T11:11:19;3;3;
64613;PMS5003;51025;37.772;-122.432;2023-07-30T11:13:47;6;3;
64613;PMS5003;51025;37.772;-122.432;2023-07-30T11:16:16;3;3;
64613;PMS5003;51025;37.772;-122.432;2023-07-30T11:18:45;5;3;
64613;PMS5003;51025;37.772;-122.432;2023-07-30T11:21:14;6;5;
64613;PMS5003;51025;37.772;-122.432;2023-07-30T11:23:44;4;4;
64613;PMS5003;51025;37.772;-122.432;2023-07-30T11:26:14;3;3;
64613;PMS5003;51025;37.772;-122.432;2023-07-30T11:28:44;2;2;
64613;PMS5003;51025;37.772;-122.432;2023-07-30T11:31:12;4;4;
64613;PMS5003;51025;37.772;-122.432;2023-07-30T11:33:43;5;3;
64613;PMS5003;51025;37.772;-122.432;2023-07-30T11:36:14;2;2;
64613;PMS5003;51025;37.772;-122.432;2023-07-30T11:38:44;3;3;
64613;PMS5003;51025;37.772;-122.432;2023-07-30T11:41:13;3;3;
64613;PMS5003;51025;37.772;-122.432;2023-07-30T11:43:43;5;4;
64613;PMS5003;51025;37.772;-122.432;2023-07-30T11:46:11;3;3;
64613;PMS5003;51025;37.772;-122.432;2023-07-30T11:48:42;2;2;
64613;PMS5003;51025;37.772;-122.432;2023-07-30T11:51:18;4;4;
64613;PMS5003;51025;37.772;-122.432;2023-07-30T11:53:48;2;2;
64613;PMS5003;51025;37.772;-122.432;2023-07-30T11:56:20;4;2;
64613;PMS5003;51025;37.772;-122.432;2023-07-30T11:58:50;5;4;
64613;PMS5003;51025;37.772;-122.432;2023-07-30T12:01:21;4;4;
64613;PMS5003;51025;37.772;-122.432;2023-07-30T12:03:54;3;1;
64613;PMS5003;51025;37.772;-122.432;2023-07-30T12:06:23;3;3;
64613;PMS5003;51025;37.772;-122.432;2023-07-30T12:09:09;2;2;
64613;PMS5003;51025;37.772;-122.432;2023-07-30T12:11:47;4;3;
64613;PMS5003;51025;37.772;-122.432;2023-07-30T12:14:17;6;6;
64613;PMS5003;51025;37.772;-122.432;2023-07-30T12:16:48;4;4;
64613;PMS5003;51025;37.772;-122.432;2023-07-30T12:19:17;3;2;
64613;PMS5003;51025;37.772;-122.432;2023-07-30T12:21:45;5;5;
64613;PMS5003;51025;37.772;-122.432;2023-07-30T12:24:13;3;3;
64613;PMS5003;51025;37.772;-122.432;2023-07-30T12:26:41;4;4;
64613;PMS5003;51025;37.772;-122.432;2023-07-30T12:29:10;4;4;
64613;PMS5003;51025;37.772;-122.432;2023-07-30T12:31:39;2;2;
64613;PMS5003;51025;37.772;-122.432;2023-07-30T12:34:07;3;3;
64613;PMS5003;51025;37.772;-122.432;2023-07-30T12:36:36;4;4;
64613;PMS5003;51025;37.772;-122.432;2023-07-30T12:39:04;2;2;
64613;PMS5003;51025;37.772;-122.432;2023-07-30T12:41:33;4;4;
64613;PMS5003;51025;37.772;-122.432;2023-07-30T12:44:01;4;3;
64613;PMS5003;51025;37.772;-122.432;2023-07-30T12:46:29;3;3;
64613;PMS5003;51025;37.772;-122.432;2023-07-30T12:48:57;8;8;
64613;PMS5003;51025;37.772;-122.432;2023-07-30T12:51:27;10;9;
64613;PMS5003;51025;37.772;-122.432;2023-07-30T12:53:55;7;7;
64613;PMS5003;51025;37.772;-122.432;2023-07-30T12:56:24;5;4;
64613;PMS5003;51025;37.772;-122.432;2023-07-30T12:58:52;8;5;
64613;PMS5003;51025;37.772;-122.432;2023-07-30T13:01:21;6;5;
64613;PMS5003;51025;37.772;-122.432;2023-07-30T13:03:49;3;3;
64613;PMS5003;51025;37.772;-122.432;2023-07-30T13:06:18;5;5;
64613;PMS5003;51025;37.772;-122.432;2023-07-30T13:08:47;4;4;
64613;PMS5003;51025;37.772;-122.432;2023-07-30T13:11:15;5;4;
64613;PMS5003;51025;37.772;-122.432;2023-07-30T13:13:43;6;5;
64613;PMS5003;51025;37.772;-122.432;2023-07-30T13:16:12;7;7;
64613;PMS5003;51025;37.772;-122.432;2023-07-30T13:18:40;4;4;
64613;PMS5003;51025;37.772;-122.432;2023-07-30T13:21:09;5;5;
64613;PMS5003;51025;37.772;-122.432;2023-07-30T13:23:37;5;5;
64613;PMS5003;51025;37.772;-122.432;2023-07-30T13:26:05;6;6;
64613;PMS5003;51025;37.772;-122.432;2023-07-30T13:28:34;3;3;
64613;PMS5003;51025;37.772;-122.432;2023-07-30T13:31:02;5;5;
64613;PMS5003;51025;37.772;-122.432;2023-07-30T13:33:30;6;4;
64613;PMS5003;51025;37.772;-122.432;2023-07-30T13:35:58;6;6;
64613;PMS5003;51025;37.772;-122.432;2023-07-30T13:38:26;5;4;
64613;PMS5003;51025;37.772;-122.432;2023-07-30T13:40:54;6;4;
64613;PMS5003;51025;37.772;-122.432;2023-07-30T13:43:23;8;7;
64613;PMS5003;51025;37.772;-122.432;2023-07-30T13:45:51;7;4;
64613;PMS5003;51025;37.772;-122.432;2023-07-30T13:48:19;6;6;
64613;PMS5003;51025;37.772;-122.432;2023-07-30T13:50:48;6;5;
64613;PMS5003;51025;37.772;-122.432;2023-07-30T13:53:16;7;5;
64613;PMS5003;51025;37.772;-122.432;2023-07-30T13:55:45;6;5;
64613;PMS5003;51025;37.772;-122.432;2023-07-30T13:58:14;5;4;
64613;PMS5003;51025;37.772;-122.432;2023-07-30T14:00:42;3;3;
64613;PMS5003;51025;37.772;-122.432;2023-07-30T14:03:10;7;6;
64613;PMS5003;51025;37.772;-122.432;2023-07-30T14:05:38;12;9;
64613;PMS5003;51025;37.772;-122.432;2023-07-30T14:08:06;10;7;
64613;PMS5003;51025;37.772;-122.432;2023-07-30T14:10:35;7;5;
64613;PMS5003;51025;37.772;-122.432;2023-07-30T14:13:03;3;3;
64613;PMS5003;51025;37.772;-122.432;2023-07-30T14:15:31;5;4;
64613;PMS5003;51025;37.772;-122.432;2023-07-30T14:18:00;8;6;
64613;PMS5003;51025;37.772;-122.432;2023-07-30T14:20:28;5;5;
64613;PMS5003;51025;37.772;-122.432;2023-07-30T14:22:57;5;5;
64613;PMS5003;51025;37.772;-122.432;2023-07-30T14:25:25;7;6;
64613;PMS5003;51025;37.772;-122.432;2023-07-30T14:27:53;6;6;
64613;PMS5003;51025;37.772;-122.432;2023-07-30T14:30:22;5;4;
64613;PMS5003;51025;37.772;-122.432;2023-07-30T14:32:50;7;5;
64613;PMS5003;51025;37.772;-122.432;2023-07-30T14:35:19;6;3;
64613;PMS5003;51025;37.772;-122.432;2023-07-30T14:37:48;9;6;
64613;PMS5003;51025;37.772;-122.432;2023-07-30T14:40:16;5;5;
64613;PMS5003;51025;37.772;-122.432;2023-07-30T14:42:46;6;5;
64613;PMS5003;51025;37.772;-122.432;2023-07-30T14:45:14;7;7;
64613;PMS5003;51025;37.772;-122.432;2023-07-30T14:47:42;6;4;
64613;PMS5003;51025;37.772;-122.432;2023-07-30T14:50:11;10;7;
64613;PMS5003;51025;37.772;-122.432;2023-07-30T14:52:39;8;5;
64613;PMS5003;51025;37.772;-122.432;2023-07-30T14:55:08;6;5;
64613;PMS5003;51025;37.772;-122.432;2023-07-30T14:57:37;8;7;
64613;PMS5003;51025;37.772;-122.432;2023-07-30T15:00:06;9;8;
64613;PMS5003;51025;37.772;-122.432;2023-07-30T15:02:35;6;5;
64613;PMS5003;51025;37.772;-122.432;2023-07-30T15:05:04;7;6;
64613;PMS5003;51025;37.772;-122.432;2023-07-30T15:07:33;8;7;
64613;PMS5003;51025;37.772;-122.432;2023-07-30T15:10:01;9;7;
64613;PMS5003;51025;37.772;-122.432;2023-07-30T15:12:29;8;5;
64613;PMS5003;51025;37.772;-122.432;2023-07-30T15:14:57;6;5;
64613;PMS5003;51025;37.772;-122.432;2023-07-30T15:17:26;7;7;
64613;PMS5003;51025;37.772;-122.432;2023-07-30T15:19:54;9;6;
64613;PMS5003;51025;37.772;-122.432;2023-07-30T15:22:23;9;6;
64613;PMS5003;51025;37.772;-122.432;2023-07-30T15:24:51;6;6;
64613;PMS5003;51025;37.772;-122.432;2023-07-30T15:27:20;6;6;
64613;PMS5003;51025;37.772;-122.432;2023-07-30T15:29:49;8;6;
64613;PMS5003;51025;37.772;-122.432;2023-07-30T15:32:17;4;4;
64613;PMS5003;51025;37.772;-122.432;2023-07-30T15:34:45;7;7;
64613;PMS5003;51025;37.772;-122.432;2023-07-30T15:37:13;6;6;
64613;PMS5003;51025;37.772;-122.432;2023-07-30T15:39:41;4;4;
64613;PMS5003;51025;37.772;-122.432;2023-07-30T15:42:09;4;4;
64613;PMS5003;51025;37.772;-122.432;2023-07-30T15:44:37;6;6;
64613;PMS5003;51025;37.772;-122.432;2023-07-30T15:47:05;4;4;
64613;PMS5003;51025;37.772;-122.432;2023-07-30T15:49:33;8;8;
64613;PMS5003;51025;37.772;-122.432;2023-07-30T15:52:01;9;7;
64613;PMS5003;51025;37.772;-122.432;2023-07-30T15:54:31;8;6;
64613;PMS5003;51025;37.772;-122.432;2023-07-30T15:57:00;7;5;
64613;PMS5003;51025;37.772;-122.432;2023-07-30T15:59:28;3;3;
64613;PMS5003;51025;37.772;-122.432;2023-07-30T16:01:57;5;5;
64613;PMS5003;51025;37.772;-122.432;2023-07-30T16:04:26;7;6;